Time;durP1;ratioP1;P1;durP2;ratioP2;P2;SDS_P1;SDS_P2;PMS_P1;PMS_P2;Temp;Humidity;BMP_temperature;BMP_pressure;BME280_temperature;BME280_humidity;BME280_pressure;Samples;Min_cycle;Max_cycle;Signal;HPM_P1;HPM_P2
2021/08/03 00:01:29;;;;;;;2.57;2.20;;;14.80;99.90;;;;;;4994300;28;20438;-68
2021/08/03 00:04:10;;;;;;;2.70;2.50;;;14.80;99.90;;;;;;4994425;28;20172;-67
2021/08/03 00:06:42;;;;;;;2.90;2.60;;;14.80;99.90;;;;;;4994523;28;20168;-68
2021/08/03 00:09:09;;;;;;;2.80;2.60;;;14.80;99.90;;;;;;4994253;28;20589;-67
2021/08/03 00:11:40;;;;;;;5.07;3.13;;;14.80;99.90;;;;;;4994355;28;20438;-67
2021/08/03 00:14:06;;;;;;;4.83;3.37;;;14.80;99.90;;;;;;4994308;28;20419;-68
2021/08/03 00:16:41;;;;;;;2.40;2.20;;;14.90;99.90;;;;;;4994111;28;20430;-67
2021/08/03 00:19:07;;;;;;;3.40;3.20;;;14.90;99.90;;;;;;4993809;28;20540;-68
2021/08/03 00:21:34;;;;;;;2.60;2.40;;;14.90;99.90;;;;;;4994174;28;20427;-68
2021/08/03 00:23:59;;;;;;;3.80;2.90;;;14.90;99.90;;;;;;4994197;28;20421;-68
2021/08/03 00:26:25;;;;;;;3.03;2.83;;;14.90;99.90;;;;;;4993950;28;20415;-68
2021/08/03 00:28:50;;;;;;;4.17;2.50;;;14.90;99.90;;;;;;4993654;28;20191;-68
2021/08/03 00:31:19;;;;;;;3.83;2.80;;;15.00;99.90;;;;;;4993888;28;20736;-68
2021/08/03 00:33:47;;;;;;;4.20;2.50;;;15.10;99.90;;;;;;4993958;28;20168;-68
2021/08/03 00:36:14;;;;;;;2.73;2.53;;;15.10;99.90;;;;;;4993862;28;20502;-68
2021/08/03 00:38:40;;;;;;;2.80;2.60;;;15.20;99.90;;;;;;4993455;28;20795;-68
2021/08/03 00:41:11;;;;;;;5.20;2.67;;;15.20;99.90;;;;;;4993742;28;20518;-68
2021/08/03 00:43:37;;;;;;;2.90;2.70;;;15.20;99.90;;;;;;4993651;28;20535;-68
2021/08/03 00:46:03;;;;;;;4.60;2.40;;;15.30;99.90;;;;;;4993714;28;20429;-68
2021/08/03 00:48:28;;;;;;;2.97;2.77;;;15.30;99.90;;;;;;4975888;28;20178;-68
2021/08/03 00:50:54;;;;;;;4.97;2.40;;;15.30;99.90;;;;;;4993574;28;20435;-68
2021/08/03 00:53:20;;;;;;;2.27;2.17;;;15.30;99.90;;;;;;4992708;28;20540;-68
2021/08/03 00:55:47;;;;;;;6.70;2.57;;;15.30;99.90;;;;;;4993559;28;20665;-68
2021/08/03 00:58:13;;;;;;;2.97;2.77;;;15.30;99.90;;;;;;4993162;28;20426;-68
2021/08/03 01:00:39;;;;;;;3.00;2.67;;;15.30;99.90;;;;;;4993071;28;20462;-68
2021/08/03 01:03:05;;;;;;;3.17;2.87;;;15.10;99.90;;;;;;4993360;28;20168;-69
2021/08/03 01:05:47;;;;;;;2.90;2.37;;;15.00;99.90;;;;;;4993389;28;20429;-69
2021/08/03 01:08:24;;;;;;;3.63;2.37;;;15.10;99.90;;;;;;4993236;28;20651;-68
2021/08/03 01:11:04;;;;;;;2.87;2.67;;;15.10;99.90;;;;;;4993093;28;20473;-68
2021/08/03 01:13:58;;;;;;;2.57;2.47;;;14.90;99.90;;;;;;4993131;28;20430;-68
2021/08/03 01:16:30;;;;;;;3.30;2.70;;;14.90;99.90;;;;;;4993775;28;20418;-68
2021/08/03 01:19:17;;;;;;;6.33;3.03;;;14.80;99.90;;;;;;4992518;28;20448;-68
2021/08/03 01:22:09;;;;;;;2.40;2.20;;;14.80;99.90;;;;;;4993124;28;20418;-68
2021/08/03 01:25:03;;;;;;;2.37;2.10;;;14.70;99.90;;;;;;4993111;28;20465;-68
2021/08/03 01:28:02;;;;;;;2.80;2.60;;;14.70;99.90;;;;;;4992911;28;20426;-68
2021/08/03 01:30:30;;;;;;;3.80;2.60;;;14.70;99.90;;;;;;4992582;28;20441;-68
2021/08/03 01:32:57;;;;;;;2.87;2.57;;;14.70;99.90;;;;;;4992870;28;20447;-68
2021/08/03 01:35:23;;;;;;;2.17;2.00;;;14.70;99.90;;;;;;4992851;28;20501;-68
2021/08/03 01:37:50;;;;;;;3.47;2.70;;;14.80;99.90;;;;;;4992717;28;20454;-68
2021/08/03 01:40:15;;;;;;;3.03;2.83;;;14.70;99.90;;;;;;4992339;28;20912;-68
2021/08/03 01:42:43;;;;;;;3.77;3.30;;;14.70;99.90;;;;;;4992663;28;20433;-68
2021/08/03 01:45:10;;;;;;;2.47;2.37;;;14.70;99.90;;;;;;4992836;28;20263;-68
2021/08/03 01:47:36;;;;;;;3.53;2.60;;;14.80;99.90;;;;;;4992715;28;20423;-68
2021/08/03 01:50:03;;;;;;;3.13;2.93;;;14.70;99.90;;;;;;4992801;28;20529;-68
2021/08/03 01:52:30;;;;;;;3.00;2.70;;;14.70;99.90;;;;;;4992638;28;20427;-68
2021/08/03 01:54:56;;;;;;;3.67;2.10;;;14.70;99.90;;;;;;4992648;28;20426;-68
2021/08/03 01:57:23;;;;;;;2.40;2.20;;;14.80;99.90;;;;;;4992597;28;20426;-69
2021/08/03 01:59:52;;;;;;;2.90;2.70;;;14.80;99.90;;;;;;4992130;28;20493;-68
2021/08/03 02:02:19;;;;;;;2.77;2.57;;;14.80;99.90;;;;;;4992628;28;20486;-68
2021/08/03 02:04:47;;;;;;;3.87;2.90;;;14.80;99.90;;;;;;4998303;28;20493;-68
2021/08/03 02:07:15;;;;;;;3.80;3.50;;;14.90;99.90;;;;;;4999108;28;20903;-68
2021/08/03 02:09:43;;;;;;;3.10;2.80;;;14.80;99.90;;;;;;4998449;28;20453;-68
2021/08/03 02:12:09;;;;;;;2.80;2.60;;;14.90;99.90;;;;;;4998963;28;20802;-68
2021/08/03 02:14:34;;;;;;;3.57;3.00;;;14.90;99.90;;;;;;4999002;28;20630;-68
2021/08/03 02:17:01;;;;;;;2.83;2.50;;;14.90;99.90;;;;;;4999032;28;20167;-69
2021/08/03 02:19:28;;;;;;;3.03;2.60;;;14.90;99.90;;;;;;4998310;28;20230;-68
2021/08/03 02:21:54;;;;;;;4.43;2.70;;;14.90;99.90;;;;;;4998996;28;20425;-68
2021/08/03 02:24:20;;;;;;;2.83;2.60;;;14.90;99.90;;;;;;4998821;28;20425;-68
2021/08/03 02:26:45;;;;;;;2.83;2.53;;;14.90;99.90;;;;;;4998915;28;20406;-69
2021/08/03 02:29:11;;;;;;;2.90;2.70;;;14.80;99.90;;;;;;4998362;28;20425;-68
2021/08/03 02:31:45;;;;;;;2.43;2.23;;;14.80;99.90;;;;;;4998847;28;20175;-68
2021/08/03 02:34:25;;;;;;;3.50;2.90;;;14.80;99.90;;;;;;4999005;28;20202;-68
2021/08/03 02:36:56;;;;;;;2.50;2.40;;;14.90;99.90;;;;;;4998773;28;20422;-69
2021/08/03 02:39:23;;;;;;;3.40;2.03;;;14.70;99.90;;;;;;4998221;28;20982;-68
2021/08/03 02:41:50;;;;;;;2.40;2.30;;;14.60;99.90;;;;;;4998773;28;20450;-68
2021/08/03 02:44:18;;;;;;;2.60;2.33;;;14.60;99.90;;;;;;4998572;28;20509;-68
2021/08/03 02:46:46;;;;;;;2.13;1.83;;;14.60;99.90;;;;;;4998636;28;20419;-68
2021/08/03 02:49:15;;;;;;;2.93;2.43;;;14.50;99.90;;;;;;4998203;28;20417;-68
2021/08/03 02:51:41;;;;;;;3.97;2.33;;;14.50;99.90;;;;;;4998665;28;20422;-68
2021/08/03 02:54:27;;;;;;;4.97;2.30;;;14.60;99.90;;;;;;4998595;28;20506;-68
2021/08/03 02:56:55;;;;;;;4.23;3.10;;;14.60;99.90;;;;;;4998486;28;20415;-68
2021/08/03 02:59:23;;;;;;;2.93;2.73;;;14.70;99.90;;;;;;4998075;28;20517;-69
2021/08/03 03:01:51;;;;;;;4.30;3.07;;;14.60;99.90;;;;;;4998498;28;20489;-68
2021/08/03 03:04:23;;;;;;;2.70;2.50;;;14.50;99.90;;;;;;4998481;28;20827;-68
2021/08/03 03:06:56;;;;;;;2.87;2.67;;;14.50;99.90;;;;;;4998594;28;20509;-68
2021/08/03 03:09:25;;;;;;;2.70;2.50;;;14.50;99.90;;;;;;4997818;28;20418;-68
2021/08/03 03:11:52;;;;;;;3.83;2.70;;;14.50;99.90;;;;;;4998487;28;20426;-69
2021/08/03 03:14:21;;;;;;;3.20;3.00;;;14.50;99.90;;;;;;4997750;28;20476;-69
2021/08/03 03:16:49;;;;;;;4.77;3.40;;;14.60;99.90;;;;;;4994836;28;20419;-69
2021/08/03 03:19:16;;;;;;;3.40;2.57;;;14.50;99.90;;;;;;4994907;28;20449;-68
2021/08/03 03:21:42;;;;;;;3.63;3.30;;;14.50;99.90;;;;;;4995271;28;20821;-69
2021/08/03 03:24:08;;;;;;;2.97;2.77;;;14.50;99.90;;;;;;4995175;28;20410;-68
2021/08/03 03:26:35;;;;;;;3.23;2.60;;;14.30;99.90;;;;;;4995189;28;20426;-68
2021/08/03 03:29:02;;;;;;;3.77;2.47;;;14.30;99.90;;;;;;4994819;28;20427;-69
2021/08/03 03:31:30;;;;;;;2.47;2.27;;;14.30;99.90;;;;;;4995009;28;20449;-69
2021/08/03 03:33:58;;;;;;;2.90;2.70;;;14.20;99.90;;;;;;4995060;28;20448;-69
2021/08/03 03:36:26;;;;;;;2.57;2.30;;;14.30;99.90;;;;;;4994908;28;20438;-69
2021/08/03 03:38:53;;;;;;;4.90;2.50;;;14.40;99.90;;;;;;4994708;28;20465;-69
2021/08/03 03:41:31;;;;;;;3.20;2.97;;;14.40;99.90;;;;;;4994836;28;20469;-68
2021/08/03 03:43:57;;;;;;;2.57;2.37;;;14.40;99.90;;;;;;4995133;28;20422;-68
2021/08/03 03:46:30;;;;;;;5.77;2.57;;;14.40;99.90;;;;;;4994940;28;20430;-68
2021/08/03 03:49:05;;;;;;;3.87;2.83;;;14.30;99.90;;;;;;4994473;28;20179;-68
2021/08/03 03:51:34;;;;;;;2.70;2.50;;;14.40;99.90;;;;;;4994764;28;20949;-69
2021/08/03 03:54:02;;;;;;;6.30;2.73;;;14.30;99.90;;;;;;4994717;28;20863;-69
2021/08/03 03:56:31;;;;;;;6.60;3.30;;;14.30;99.90;;;;;;4994808;28;20415;-69
2021/08/03 03:59:02;;;;;;;2.63;2.50;;;14.30;99.90;;;;;;4997669;28;20553;-68
2021/08/03 04:01:28;;;;;;;2.90;2.70;;;14.30;99.90;;;;;;4994418;28;20447;-69
2021/08/03 04:03:58;;;;;;;2.90;2.60;;;14.30;99.90;;;;;;4994603;28;20427;-69
2021/08/03 04:06:25;;;;;;;3.50;3.00;;;14.30;99.90;;;;;;4994331;28;20441;-69
2021/08/03 04:08:50;;;;;;;3.60;2.40;;;14.30;99.90;;;;;;4994231;28;20426;-69
2021/08/03 04:11:16;;;;;;;3.20;2.90;;;14.30;99.90;;;;;;4994915;28;20481;-69
2021/08/03 04:13:44;;;;;;;3.10;2.90;;;14.20;99.90;;;;;;5002336;28;20240;-69
2021/08/03 04:16:10;;;;;;;3.50;2.60;;;14.20;99.90;;;;;;5005822;28;20175;-69
2021/08/03 04:18:35;;;;;;;2.70;2.50;;;14.30;99.90;;;;;;5008431;28;20442;-69
2021/08/03 04:21:01;;;;;;;3.20;2.90;;;14.40;99.90;;;;;;5007328;28;20466;-69
2021/08/03 04:23:26;;;;;;;6.93;4.10;;;14.50;99.90;;;;;;4998565;28;20175;-69
2021/08/03 04:25:52;;;;;;;3.20;2.90;;;14.60;99.90;;;;;;4999818;28;20184;-69
2021/08/03 04:28:17;;;;;;;3.30;2.70;;;14.70;99.90;;;;;;4997425;28;20239;-69
2021/08/03 04:30:43;;;;;;;2.87;2.60;;;14.60;99.90;;;;;;4997714;28;20196;-69
2021/08/03 04:33:09;;;;;;;2.97;2.43;;;14.40;99.90;;;;;;4997740;28;20315;-69
2021/08/03 04:35:34;;;;;;;3.80;3.50;;;14.30;99.90;;;;;;4998394;28;20179;-69
2021/08/03 04:38:00;;;;;;;4.00;3.60;;;14.20;99.90;;;;;;5003742;28;20188;-69
2021/08/03 04:40:26;;;;;;;2.30;2.20;;;14.20;99.90;;;;;;5000072;28;20208;-69
2021/08/03 04:42:52;;;;;;;6.13;3.03;;;14.10;99.90;;;;;;5006080;28;20175;-69
2021/08/03 04:45:18;;;;;;;3.93;3.30;;;14.00;99.90;;;;;;5002458;28;20437;-69
2021/08/03 04:47:49;;;;;;;6.30;4.13;;;14.10;99.90;;;;;;5004390;28;20842;-69
2021/08/03 04:50:19;;;;;;;3.07;2.73;;;14.10;99.90;;;;;;4993340;28;20939;-69
2021/08/03 04:52:45;;;;;;;5.50;2.60;;;14.10;99.90;;;;;;4993533;28;20448;-69
2021/08/03 04:55:11;;;;;;;3.00;2.70;;;14.10;99.90;;;;;;4993591;28;20927;-69
2021/08/03 04:57:37;;;;;;;7.67;3.00;;;14.00;99.90;;;;;;4993453;28;20175;-69
2021/08/03 05:00:05;;;;;;;4.80;3.60;;;14.10;99.90;;;;;;4993160;28;20857;-69
2021/08/03 05:02:30;;;;;;;2.47;2.30;;;14.10;99.90;;;;;;4993540;28;20573;-69
2021/08/03 05:04:55;;;;;;;6.50;3.60;;;14.10;99.90;;;;;;4993512;28;20434;-69
2021/08/03 05:07:21;;;;;;;2.83;2.63;;;14.20;99.90;;;;;;4993515;28;20199;-69
2021/08/03 05:09:46;;;;;;;4.60;4.20;;;14.20;99.90;;;;;;4993148;28;20632;-69
2021/08/03 05:12:12;;;;;;;6.50;3.20;;;14.20;99.90;;;;;;4993268;28;20707;-69
2021/08/03 05:14:38;;;;;;;2.70;2.50;;;14.10;99.90;;;;;;4993772;28;20176;-69
2021/08/03 05:17:03;;;;;;;3.27;2.70;;;14.20;99.90;;;;;;4975793;28;20175;-69
2021/08/03 05:19:29;;;;;;;2.83;2.50;;;14.30;99.90;;;;;;4975409;28;20211;-69
2021/08/03 05:21:54;;;;;;;5.13;3.80;;;14.20;99.90;;;;;;4993270;28;20691;-69
2021/08/03 05:24:25;;;;;;;3.10;2.80;;;14.20;99.90;;;;;;4993060;28;20168;-69
2021/08/03 05:26:52;;;;;;;3.23;3.00;;;14.20;99.90;;;;;;4992932;28;20163;-69
2021/08/03 05:29:17;;;;;;;3.50;2.77;;;14.40;99.90;;;;;;4992630;28;20763;-69
2021/08/03 05:31:43;;;;;;;2.87;2.67;;;14.50;99.90;;;;;;4992954;28;20419;-69
2021/08/03 05:34:08;;;;;;;3.20;2.90;;;14.70;99.90;;;;;;4992811;28;20605;-69
2021/08/03 05:36:34;;;;;;;3.50;2.67;;;14.80;99.90;;;;;;4993022;28;20176;-69
2021/08/03 05:38:59;;;;;;;5.03;2.90;;;14.90;99.90;;;;;;4991857;28;20202;-69
2021/08/03 05:41:25;;;;;;;6.10;3.10;;;15.00;99.90;;;;;;4992593;28;20282;-69
2021/08/03 05:43:50;;;;;;;4.03;3.10;;;15.10;99.90;;;;;;4992946;28;20167;-69
2021/08/03 05:46:17;;;;;;;4.93;2.93;;;15.20;99.90;;;;;;5002238;28;20186;-69
2021/08/03 05:48:43;;;;;;;3.03;2.83;;;15.20;99.90;;;;;;4994510;28;20651;-69
2021/08/03 05:51:08;;;;;;;2.50;2.30;;;15.10;99.90;;;;;;4993596;28;20486;-69
2021/08/03 05:53:34;;;;;;;2.70;2.50;;;15.10;99.90;;;;;;4993149;28;20273;-69
2021/08/03 05:56:00;;;;;;;3.23;2.93;;;15.00;99.90;;;;;;4993161;28;20299;-69
2021/08/03 05:58:26;;;;;;;3.93;3.03;;;15.00;99.90;;;;;;4993303;28;21382;-69
2021/08/03 06:00:51;;;;;;;5.00;4.50;;;15.00;99.90;;;;;;5007479;28;20551;-69
2021/08/03 06:03:17;;;;;;;4.27;3.17;;;15.20;99.90;;;;;;5011805;28;20628;-69
2021/08/03 06:05:42;;;;;;;2.97;2.67;;;15.30;99.90;;;;;;5012080;28;20167;-69
2021/08/03 06:08:10;;;;;;;3.60;2.67;;;15.50;99.90;;;;;;5012105;28;20182;-69
2021/08/03 06:10:37;;;;;;;3.40;2.50;;;15.60;99.90;;;;;;5011490;28;20210;-69
2021/08/03 06:13:05;;;;;;;4.77;4.30;;;15.70;99.90;;;;;;5012009;28;20484;-69
2021/08/03 06:15:38;;;;;;;3.13;2.87;;;15.90;99.90;;;;;;5012120;28;20417;-69
2021/08/03 06:18:17;;;;;;;3.00;2.70;;;16.10;99.90;;;;;;5012016;28;20437;-69
2021/08/03 06:20:43;;;;;;;3.20;2.40;;;16.40;99.90;;;;;;5011665;28;20547;-69
2021/08/03 06:23:12;;;;;;;3.40;2.33;;;16.50;99.90;;;;;;5011909;28;20418;-69
2021/08/03 06:25:40;;;;;;;4.27;2.70;;;16.50;99.90;;;;;;5003871;28;20470;-66
2021/08/03 06:28:06;;;;;;;2.77;2.33;;;16.60;99.90;;;;;;4992212;28;20425;-65
2021/08/03 06:30:39;;;;;;;3.20;2.30;;;16.70;99.90;;;;;;4991918;28;20955;-66
2021/08/03 06:33:06;;;;;;;2.90;2.70;;;16.80;99.90;;;;;;4992318;28;20990;-67
2021/08/03 06:35:32;;;;;;;2.60;2.50;;;17.00;99.90;;;;;;4992674;28;20419;-66
2021/08/03 06:37:57;;;;;;;2.50;2.30;;;17.00;99.90;;;;;;4992428;28;20422;-66
2021/08/03 06:40:23;;;;;;;3.70;2.20;;;17.00;99.90;;;;;;4991906;28;20747;-67
2021/08/03 06:43:01;;;;;;;2.43;2.20;;;17.30;99.90;;;;;;4992000;28;20175;-66
2021/08/03 06:45:32;;;;;;;2.20;2.00;;;17.60;99.90;;;;;;4992793;28;20198;-67
2021/08/03 06:48:03;;;;;;;5.70;2.27;;;17.90;99.90;;;;;;4991691;28;20422;-66
2021/08/03 06:50:35;;;;;;;3.10;2.00;;;18.20;99.90;;;;;;4992191;28;20453;-65
2021/08/03 06:53:04;;;;;;;3.73;1.80;;;18.50;99.90;;;;;;4968726;28;20439;-65
2021/08/03 06:55:32;;;;;;;4.30;2.00;;;18.70;99.90;;;;;;4972565;28;20481;-66
2021/08/03 06:58:01;;;;;;;3.90;2.30;;;18.80;99.90;;;;;;4992245;28;20442;-65
2021/08/03 07:00:35;;;;;;;3.93;2.20;;;18.80;99.90;;;;;;4992069;28;20466;-65
2021/08/03 07:03:01;;;;;;;2.27;2.17;;;18.70;99.90;;;;;;4994704;28;20419;-65
2021/08/03 07:05:27;;;;;;;2.33;2.13;;;18.30;99.90;;;;;;4995024;28;20422;-65
2021/08/03 07:08:00;;;;;;;1.90;1.80;;;18.10;99.90;;;;;;4995465;28;20903;-65
2021/08/03 07:10:27;;;;;;;2.40;2.20;;;18.10;99.90;;;;;;4992492;28;20471;-66
2021/08/03 07:12:55;;;;;;;1.77;1.67;;;18.30;99.90;;;;;;4994519;28;20470;-65
2021/08/03 07:15:25;;;;;;;1.70;1.60;;;18.50;99.90;;;;;;4993074;28;20480;-66
2021/08/03 07:17:52;;;;;;;3.60;2.20;;;18.90;99.90;;;;;;4994772;28;20954;-66
2021/08/03 07:20:20;;;;;;;2.73;2.33;;;19.20;99.90;;;;;;4992912;28;20462;-66
2021/08/03 07:22:46;;;;;;;1.70;1.60;;;19.20;99.90;;;;;;4995089;28;20422;-65
2021/08/03 07:25:12;;;;;;;2.53;2.33;;;19.30;99.90;;;;;;4994024;28;20990;-65
2021/08/03 07:27:37;;;;;;;2.10;1.97;;;19.40;99.90;;;;;;4994770;28;20512;-65
2021/08/03 07:30:04;;;;;;;2.20;2.00;;;19.50;99.90;;;;;;4993912;28;20195;-65
2021/08/03 07:32:33;;;;;;;2.07;1.93;;;19.40;99.90;;;;;;4994468;28;20172;-66
2021/08/03 07:35:01;;;;;;;2.13;1.97;;;19.50;99.90;;;;;;4994479;28;20941;-66
2021/08/03 07:37:27;;;;;;;2.07;1.87;;;19.40;99.90;;;;;;4994577;28;20463;-66
2021/08/03 07:39:53;;;;;;;3.83;2.60;;;19.20;99.90;;;;;;4993992;28;20462;-65
2021/08/03 07:42:19;;;;;;;5.33;2.80;;;18.90;99.90;;;;;;4994864;28;20522;-65
2021/08/03 07:44:44;;;;;;;2.03;1.93;;;18.80;99.90;;;;;;4994304;28;20172;-66
2021/08/03 07:47:12;;;;;;;3.50;1.73;;;18.90;99.90;;;;;;4994553;28;20180;-66
2021/08/03 07:49:37;;;;;;;1.87;1.77;;;19.20;99.90;;;;;;4993886;28;20192;-65
2021/08/03 07:52:06;;;;;;;2.67;2.47;;;19.40;99.90;;;;;;4994296;28;20919;-65
2021/08/03 07:54:32;;;;;;;2.40;2.20;;;19.90;99.90;;;;;;4992550;28;20271;-65
2021/08/03 07:56:57;;;;;;;1.97;1.87;;;20.60;99.90;;;;;;4993469;28;20430;-66
2021/08/03 07:59:23;;;;;;;2.00;1.90;;;20.40;99.90;;;;;;4994249;28;20788;-65
2021/08/03 08:01:49;;;;;;;3.33;1.80;;;20.20;99.90;;;;;;4993814;28;20187;-65
2021/08/03 08:04:15;;;;;;;4.57;1.90;;;20.20;99.90;;;;;;4994429;28;20178;-65
2021/08/03 08:06:40;;;;;;;2.23;2.03;;;20.20;99.90;;;;;;4994551;28;20422;-65
2021/08/03 08:09:06;;;;;;;2.23;2.13;;;20.20;99.90;;;;;;4993903;28;20251;-66
2021/08/03 08:11:31;;;;;;;1.73;1.63;;;20.50;99.90;;;;;;4984821;28;20293;-65
2021/08/03 08:13:57;;;;;;;1.50;1.40;;;20.60;99.90;;;;;;4990632;28;20207;-66
2021/08/03 08:16:22;;;;;;;2.47;1.80;;;20.50;99.90;;;;;;4990730;28;20190;-66
2021/08/03 08:18:48;;;;;;;3.33;2.33;;;20.30;99.90;;;;;;4990679;28;20548;-66
2021/08/03 08:21:14;;;;;;;2.00;1.90;;;20.30;99.90;;;;;;4990726;28;20215;-67
2021/08/03 08:23:39;;;;;;;2.47;1.90;;;20.50;99.90;;;;;;4990674;28;20565;-66
2021/08/03 08:26:05;;;;;;;10.87;6.60;;;20.50;99.90;;;;;;4990570;28;20191;-65
2021/08/03 08:28:30;;;;;;;2.90;1.77;;;20.40;99.90;;;;;;4990539;28;20684;-65
2021/08/03 08:30:56;;;;;;;2.40;1.80;;;20.40;99.90;;;;;;4991001;28;20195;-66
2021/08/03 08:33:22;;;;;;;2.73;2.00;;;20.30;99.90;;;;;;4990577;28;20184;-66
2021/08/03 08:35:48;;;;;;;2.90;1.87;;;19.90;99.90;;;;;;4990592;28;20948;-65
2021/08/03 08:38:13;;;;;;;2.30;2.10;;;19.80;99.90;;;;;;4990518;28;20492;-65
2021/08/03 08:40:40;;;;;;;3.27;2.97;;;19.90;99.90;;;;;;4990802;28;20230;-66
2021/08/03 08:43:05;;;;;;;2.23;2.13;;;19.90;99.90;;;;;;4990508;28;20545;-66
2021/08/03 08:45:31;;;;;;;3.70;2.30;;;20.00;99.90;;;;;;4990567;28;20430;-65
2021/08/03 08:47:58;;;;;;;2.17;1.97;;;19.90;99.90;;;;;;4990465;28;20179;-66
2021/08/03 08:50:25;;;;;;;1.87;1.77;;;20.10;99.90;;;;;;4990192;28;20200;-66
2021/08/03 08:52:54;;;;;;;2.00;1.87;;;20.20;99.90;;;;;;4990264;28;20429;-66
2021/08/03 08:55:21;;;;;;;4.60;2.20;;;20.60;99.90;;;;;;4990139;28;20781;-66
2021/08/03 08:57:49;;;;;;;2.10;2.00;;;20.60;99.90;;;;;;4972445;28;20430;-65
2021/08/03 09:00:14;;;;;;;3.00;2.00;;;20.70;99.90;;;;;;4989954;28;20950;-66
2021/08/03 09:02:45;;;;;;;2.53;2.17;;;20.90;99.90;;;;;;4990164;28;20518;-65
2021/08/03 09:05:13;;;;;;;1.80;1.70;;;20.80;99.90;;;;;;4990017;28;20176;-66
2021/08/03 09:07:53;;;;;;;2.00;1.90;;;20.60;99.90;;;;;;4989932;28;20429;-66
2021/08/03 09:10:32;;;;;;;2.07;1.97;;;20.70;99.90;;;;;;4989533;28;20461;-65
2021/08/03 09:12:59;;;;;;;2.03;1.90;;;20.90;99.90;;;;;;4989018;28;20493;-66
2021/08/03 09:15:25;;;;;;;4.60;2.33;;;21.10;99.90;;;;;;4989907;28;20434;-66
2021/08/03 09:17:51;;;;;;;3.50;2.40;;;21.20;99.90;;;;;;4989899;28;20865;-66
2021/08/03 09:20:17;;;;;;;3.57;2.40;;;20.90;99.90;;;;;;4989217;28;20211;-66
2021/08/03 09:22:49;;;;;;;5.10;2.27;;;20.50;99.90;;;;;;4989686;28;20205;-65
2021/08/03 09:25:17;;;;;;;3.70;2.37;;;20.20;99.90;;;;;;4972417;28;20426;-65
2021/08/03 09:27:47;;;;;;;4.07;2.10;;;20.00;99.90;;;;;;4989855;28;20427;-66
2021/08/03 09:30:18;;;;;;;2.50;2.30;;;19.60;99.90;;;;;;4989327;28;20446;-65
2021/08/03 09:32:48;;;;;;;3.23;2.93;;;19.50;99.90;;;;;;4989262;28;20426;-66
2021/08/03 09:35:17;;;;;;;3.20;2.60;;;19.50;99.90;;;;;;4989806;28;20435;-66
2021/08/03 09:37:44;;;;;;;2.40;2.20;;;19.60;99.90;;;;;;4989739;28;20441;-66
2021/08/03 09:40:31;;;;;;;3.00;2.60;;;19.70;99.90;;;;;;4989166;28;20564;-65
2021/08/03 09:43:05;;;;;;;2.43;2.23;;;19.70;99.90;;;;;;4989155;28;20414;-66
2021/08/03 09:45:51;;;;;;;2.53;2.10;;;19.40;99.90;;;;;;4989474;28;20924;-66
2021/08/03 09:48:18;;;;;;;2.30;2.10;;;19.10;99.90;;;;;;4972487;28;20435;-65
2021/08/03 09:50:53;;;;;;;2.53;1.90;;;19.10;99.90;;;;;;4989234;28;20526;-66
2021/08/03 09:53:51;;;;;;;3.23;2.93;;;19.10;99.90;;;;;;4989144;28;20433;-65
2021/08/03 09:56:18;;;;;;;2.47;2.37;;;19.00;99.90;;;;;;4989491;28;20465;-65
2021/08/03 09:59:04;;;;;;;4.40;2.33;;;18.90;99.90;;;;;;4989027;28;20430;-66
2021/08/03 10:01:35;;;;;;;2.00;1.90;;;18.90;99.90;;;;;;4989124;28;20477;-65
2021/08/03 10:04:06;;;;;;;3.03;2.77;;;18.90;99.90;;;;;;4989526;28;20414;-66
2021/08/03 10:06:33;;;;;;;2.70;2.40;;;18.90;99.90;;;;;;4989703;28;20426;-66
2021/08/03 10:08:59;;;;;;;2.70;2.30;;;18.90;99.90;;;;;;4972348;28;20446;-66
2021/08/03 10:11:26;;;;;;;2.47;2.27;;;19.00;99.90;;;;;;4993956;23;21396;-66
2021/08/03 10:13:53;;;;;;;4.27;2.17;;;19.10;99.90;;;;;;4969513;28;20436;-67
2021/08/03 10:16:20;;;;;;;4.60;2.53;;;19.20;99.90;;;;;;4969964;28;20806;-66
2021/08/03 10:18:50;;;;;;;2.80;2.10;;;19.30;99.90;;;;;;4969575;28;20855;-69
2021/08/03 10:21:21;;;;;;;2.70;2.20;;;19.40;99.90;;;;;;4969807;28;20470;-64
2021/08/03 10:23:48;;;;;;;3.47;1.80;;;19.40;99.90;;;;;;4950800;28;20483;-67
2021/08/03 10:26:15;;;;;;;1.70;1.60;;;19.70;99.90;;;;;;4954134;29;20431;-68
2021/08/03 10:28:41;;;;;;;2.40;2.20;;;19.80;99.90;;;;;;4967304;28;20870;-65
2021/08/03 10:31:36;;;;;;;2.07;1.97;;;19.80;99.90;;;;;;4973980;28;20826;-66
2021/08/03 10:34:01;;;;;;;1.87;1.70;;;19.60;99.90;;;;;;4973866;28;20885;-65
2021/08/03 10:36:47;;;;;;;2.30;2.03;;;19.70;99.90;;;;;;4973892;28;20510;-66
2021/08/03 10:39:18;;;;;;;2.00;1.90;;;19.80;99.90;;;;;;4973430;28;20168;-66
2021/08/03 10:41:59;;;;;;;2.70;2.10;;;20.20;99.90;;;;;;4973745;28;20828;-65
2021/08/03 10:44:45;;;;;;;1.60;1.50;;;20.90;99.90;;;;;;4973296;28;20431;-66
2021/08/03 10:49:58;;;;;;;2.60;1.83;;;22.00;99.90;;;;;;4972975;28;20469;-66
2021/08/03 10:52:54;;;;;;;3.60;2.00;;;21.70;99.90;;;;;;4973431;28;20459;-65
2021/08/03 10:55:35;;;;;;;3.37;2.00;;;21.00;99.90;;;;;;4973660;28;20586;-65
2021/08/03 10:58:09;;;;;;;2.70;2.50;;;20.60;99.90;;;;;;4972998;28;20427;-65
2021/08/03 11:00:45;;;;;;;2.30;2.20;;;20.20;99.90;;;;;;4972633;28;20943;-66
2021/08/03 11:03:36;;;;;;;2.60;2.30;;;20.20;99.90;;;;;;4955404;28;21007;-65
2021/08/03 11:06:09;;;;;;;4.63;2.50;;;20.30;99.90;;;;;;4972891;28;20434;-66
2021/08/03 11:08:42;;;;;;;2.37;2.17;;;20.90;99.90;;;;;;4972682;28;20986;-65
2021/08/03 11:11:18;;;;;;;2.33;2.23;;;21.80;99.90;;;;;;4972660;28;20463;-65
2021/08/03 11:13:48;;;;;;;6.17;2.73;;;22.80;99.90;;;;;;4972542;28;20427;-65
2021/08/03 11:16:33;;;;;;;2.97;2.50;;;23.40;99.90;;;;;;4972859;28;20441;-64
2021/08/03 11:19:01;;;;;;;2.50;2.30;;;23.80;99.90;;;;;;4954357;28;20851;-65
2021/08/03 11:21:31;;;;;;;2.13;1.90;;;23.00;99.90;;;;;;4972202;28;20455;-66
2021/08/03 11:24:15;;;;;;;3.00;2.80;;;23.10;99.90;;;;;;4972591;28;20423;-66
2021/08/03 11:26:51;;;;;;;3.13;2.83;;;23.00;99.90;;;;;;4972709;28;20431;-67
2021/08/03 11:29:23;;;;;;;2.43;2.10;;;22.50;99.90;;;;;;4972013;28;20419;-65
2021/08/03 11:31:56;;;;;;;2.70;2.50;;;22.10;99.90;;;;;;4972425;28;20431;-65
2021/08/03 11:34:25;;;;;;;4.03;3.50;;;22.00;99.90;;;;;;4954962;28;20983;-65
2021/08/03 11:37:01;;;;;;;2.03;1.90;;;21.90;99.90;;;;;;4971746;28;20426;-66
2021/08/03 11:39:30;;;;;;;2.27;2.17;;;21.70;99.90;;;;;;4972105;28;20820;-66
2021/08/03 11:41:56;;;;;;;3.17;2.43;;;21.20;99.90;;;;;;4972377;28;20450;-65
2021/08/03 11:44:22;;;;;;;2.10;2.00;;;20.90;99.90;;;;;;4972137;28;20925;-65
2021/08/03 11:47:03;;;;;;;2.13;2.03;;;20.70;99.90;;;;;;4972271;28;20251;-66
2021/08/03 11:49:41;;;;;;;2.87;2.67;;;20.70;99.90;;;;;;4971933;28;20858;-65
2021/08/03 11:52:11;;;;;;;2.53;2.33;;;21.00;99.90;;;;;;4972011;28;20431;-66
2021/08/03 11:54:38;;;;;;;2.73;2.27;;;20.80;99.90;;;;;;4972365;28;20502;-66
2021/08/03 11:57:34;;;;;;;2.47;2.27;;;20.70;99.90;;;;;;4972057;28;20435;-66
2021/08/03 12:00:07;;;;;;;1.83;1.73;;;20.90;99.90;;;;;;4971430;28;20470;-65
2021/08/03 12:02:32;;;;;;;2.50;2.30;;;20.70;99.90;;;;;;4971737;28;20932;-65
2021/08/03 12:05:25;;;;;;;2.73;2.53;;;20.40;99.90;;;;;;4972048;28;20442;-65
2021/08/03 12:07:59;;;;;;;2.73;2.33;;;20.20;99.90;;;;;;4966507;28;20189;-66
2021/08/03 12:10:28;;;;;;;2.20;2.00;;;20.10;99.90;;;;;;4963055;28;20471;-66
2021/08/03 12:12:54;;;;;;;2.60;2.37;;;19.90;99.90;;;;;;4961654;28;20435;-65
2021/08/03 12:15:22;;;;;;;2.73;2.20;;;19.90;99.90;;;;;;4961344;28;20451;-65
2021/08/03 12:17:49;;;;;;;2.13;2.00;;;19.90;99.90;;;;;;4963825;28;20176;-65
2021/08/03 12:20:21;;;;;;;2.50;2.30;;;19.90;99.90;;;;;;4971223;28;20466;-65
2021/08/03 12:22:47;;;;;;;2.60;2.40;;;19.80;99.90;;;;;;4971631;28;20432;-65
2021/08/03 12:25:12;;;;;;;2.07;1.87;;;19.90;99.90;;;;;;4971305;28;20767;-66
2021/08/03 12:27:40;;;;;;;2.90;2.67;;;19.90;99.90;;;;;;4971492;28;20187;-64
2021/08/03 12:30:07;;;;;;;2.73;2.27;;;20.00;99.90;;;;;;4970696;28;20238;-66
2021/08/03 12:32:40;;;;;;;2.40;2.20;;;19.70;99.90;;;;;;4953886;28;20436;-65
2021/08/03 12:35:14;;;;;;;1.83;1.67;;;19.60;99.90;;;;;;4971345;28;20842;-65
2021/08/03 12:37:40;;;;;;;2.00;1.90;;;19.50;99.90;;;;;;4953910;28;20854;-65
2021/08/03 12:40:34;;;;;;;1.47;1.37;;;19.70;99.90;;;;;;4970970;28;20491;-66
2021/08/03 12:43:01;;;;;;;3.30;1.50;;;20.20;99.90;;;;;;4971227;28;20428;-66
2021/08/03 12:45:26;;;;;;;1.80;1.70;;;21.20;99.90;;;;;;4970989;28;20455;-67
2021/08/03 12:47:57;;;;;;;2.33;2.10;;;22.90;99.90;;;;;;4970977;28;20768;-66
2021/08/03 12:50:25;;;;;;;1.57;1.47;;;23.10;99.90;;;;;;4971011;28;20217;-65
2021/08/03 12:53:00;;;;;;;1.57;1.43;;;23.20;99.90;;;;;;4970837;28;20434;-65
2021/08/03 12:55:42;;;;;;;3.60;1.37;;;23.30;99.90;;;;;;4971108;28;20423;-66
2021/08/03 12:58:07;;;;;;;2.07;1.33;;;23.60;99.90;;;;;;4970869;28;20944;-66
2021/08/03 13:00:40;;;;;;;1.27;1.17;;;23.30;99.90;;;;;;4970089;28;20858;-65
2021/08/03 13:03:09;;;;;;;1.63;1.53;;;23.50;99.90;;;;;;4970709;28;20653;-66